createdAt,value
2023-02-04T00:00:43.223Z,96927.98
2023-02-04T00:03:29.341Z,96926.53
2023-02-04T00:05:57.393Z,96928.57
2023-02-04T00:08:25.491Z,96927.40
2023-02-04T00:10:55.529Z,96930.67
2023-02-04T00:13:23.498Z,96930.27
2023-02-04T00:15:51.960Z,96927.77
2023-02-04T00:18:21.991Z,96926.77
2023-02-04T00:20:50.444Z,96922.79
2023-02-04T00:23:19.457Z,96919.41
2023-02-04T00:25:47.563Z,96923.15
2023-02-04T00:28:15.616Z,96922.89
2023-02-04T00:30:44.567Z,96921.48
2023-02-04T00:33:13.766Z,96922.73
2023-02-04T00:35:43.498Z,96919.44
2023-02-04T00:38:11.587Z,96916.98
2023-02-04T00:40:39.893Z,96917.66
2023-02-04T00:43:07.969Z,96920.34
2023-02-04T00:45:36.524Z,96920.27
2023-02-04T00:48:04.804Z,96921.24
2023-02-04T00:50:36.284Z,96917.77
2023-02-04T00:53:07.180Z,96918.46
2023-02-04T00:55:35.232Z,96918.63
2023-02-04T00:58:04.059Z,96921.98
2023-02-04T01:00:32.433Z,96921.33
2023-02-04T01:03:02.011Z,96924.95
2023-02-04T01:05:30.313Z,96919.15
2023-02-04T01:08:00.326Z,96915.91
2023-02-04T01:10:29.510Z,96914.48
2023-02-04T01:12:58.602Z,96914.09
2023-02-04T01:15:28.178Z,96908.83
2023-02-04T01:17:56.590Z,96910.36
2023-02-04T01:20:24.559Z,96909.25
2023-02-04T01:22:53.036Z,96911.86
2023-02-04T01:25:21.187Z,96909.18
2023-02-04T01:27:50.035Z,96914.04
2023-02-04T01:30:18.513Z,96916.55
2023-02-04T01:32:46.497Z,96915.05
2023-02-04T01:35:15.934Z,96915.04
2023-02-04T01:37:44.063Z,96916.55
2023-02-04T01:40:13.845Z,96917.41
2023-02-04T01:42:41.848Z,96916.85
2023-02-04T01:45:11.109Z,96912.23
2023-02-04T01:47:40.352Z,96912.05
2023-02-04T01:50:13.237Z,96906.09
2023-02-04T01:52:43.226Z,96907.20
2023-02-04T01:55:15.209Z,96907.42
2023-02-04T01:57:44.398Z,96909.03
2023-02-04T02:00:19.406Z,96908.69
2023-02-04T02:02:51.373Z,96913.69
2023-02-04T02:05:55.424Z,96914.27
2023-02-04T02:08:25.447Z,96920.98
2023-02-04T02:10:53.493Z,96923.66
2023-02-04T02:13:21.878Z,96922.91
2023-02-04T02:15:49.862Z,96923.91
2023-02-04T02:18:17.891Z,96921.91
2023-02-04T02:20:46.691Z,96917.55
2023-02-04T02:23:32.990Z,96917.34
2023-02-04T02:26:01.072Z,96917.10
2023-02-04T02:28:29.016Z,96916.95
2023-02-04T02:30:57.130Z,96917.59
2023-02-04T02:33:26.415Z,96917.40
2023-02-04T02:35:54.756Z,96920.25
2023-02-04T02:38:22.723Z,96923.94
2023-02-04T02:40:51.345Z,96921.47
2023-02-04T02:43:25.691Z,96922.32
2023-02-04T02:45:55.126Z,96931.67
2023-02-04T02:48:23.635Z,96931.34
2023-02-04T02:50:51.770Z,96937.27
2023-02-04T02:53:22.743Z,96934.83
2023-02-04T02:55:51.773Z,96939.61
2023-02-04T02:58:34.666Z,96938.25
2023-02-04T03:01:06.121Z,96937.36
2023-02-04T03:03:49.471Z,96935.34
2023-02-04T03:06:26.389Z,96936.61
2023-02-04T03:08:56.977Z,96930.95
2023-02-04T03:11:26.388Z,96929.08
2023-02-04T03:13:54.798Z,96931.60
2023-02-04T03:16:22.795Z,96928.27
2023-02-04T03:18:50.918Z,96931.04
2023-02-04T03:21:19.215Z,96933.47
2023-02-04T03:23:47.497Z,96935.61
2023-02-04T03:26:15.705Z,96937.64
2023-02-04T03:28:44.086Z,96940.36
2023-02-04T03:31:12.511Z,96939.10
2023-02-04T03:33:40.636Z,96941.09
2023-02-04T03:36:09.751Z,96939.71
2023-02-04T03:38:38.189Z,96938.54
2023-02-04T03:41:06.205Z,96934.63
2023-02-04T03:43:34.240Z,96933.95
2023-02-04T03:46:02.306Z,96932.70
2023-02-04T03:48:30.523Z,96930.36
2023-02-04T03:50:58.557Z,96928.61
2023-02-04T03:53:26.582Z,96924.66
2023-02-04T03:55:54.837Z,96918.50
2023-02-04T03:58:23.945Z,96918.58
2023-02-04T04:00:52.147Z,96918.31
2023-02-04T04:03:20.116Z,96912.22
2023-02-04T04:05:48.130Z,96911.70
2023-02-04T04:08:16.431Z,96911.85
2023-02-04T04:10:44.750Z,96907.84
2023-02-04T04:13:12.742Z,96910.04
2023-02-04T04:15:40.728Z,96906.26
2023-02-04T04:18:08.681Z,96910.90
2023-02-04T04:20:37.180Z,96913.62
2023-02-04T04:23:05.264Z,96913.59
2023-02-04T04:25:33.423Z,96912.77
2023-02-04T04:28:02.116Z,96910.63
2023-02-04T04:30:31.721Z,96908.30
2023-02-04T04:32:59.892Z,96908.75
2023-02-04T04:35:28.465Z,96908.02
2023-02-04T04:37:56.454Z,96906.25
2023-02-04T04:40:24.446Z,96905.76
2023-02-04T04:42:52.584Z,96903.27
2023-02-04T04:45:21.499Z,96903.61
2023-02-04T04:47:49.531Z,96901.08
2023-02-04T04:50:17.618Z,96900.61
2023-02-04T04:52:45.607Z,96903.04
2023-02-04T04:55:13.665Z,96899.27
2023-02-04T04:57:41.578Z,96900.43
2023-02-04T05:00:18.521Z,96900.88
2023-02-04T05:02:47.435Z,96907.83
2023-02-04T05:05:15.696Z,96912.10
2023-02-04T05:07:43.820Z,96908.45
2023-02-04T05:10:11.911Z,96913.70
2023-02-04T05:12:40.888Z,96911.89
2023-02-04T05:15:09.262Z,96912.89
2023-02-04T05:17:37.388Z,96917.52
2023-02-04T05:20:05.612Z,96919.47
2023-02-04T05:22:33.643Z,96922.11
2023-02-04T05:25:01.723Z,96919.67
2023-02-04T05:27:31.331Z,96922.70
2023-02-04T05:29:59.259Z,96927.42
2023-02-04T05:32:27.334Z,96934.36
2023-02-04T05:34:55.352Z,96933.33
2023-02-04T05:37:23.318Z,96929.13
2023-02-04T05:39:51.260Z,96934.53
2023-02-04T05:42:19.274Z,96938.47
2023-02-04T05:44:47.242Z,96935.97
2023-02-04T05:47:15.530Z,96936.19
2023-02-04T05:49:43.563Z,96937.86
2023-02-04T05:52:12.061Z,96940.85
2023-02-04T05:54:40.280Z,96937.89
2023-02-04T05:57:08.596Z,96937.23
2023-02-04T05:59:36.576Z,96938.89
2023-02-04T06:02:04.509Z,96937.00
2023-02-04T06:04:32.569Z,96937.95
2023-02-04T06:07:01.053Z,96942.98
2023-02-04T06:09:29.018Z,96947.45
2023-02-04T06:11:57.631Z,96950.99
2023-02-04T06:14:25.579Z,96955.27
2023-02-04T06:16:53.600Z,96959.63
2023-02-04T06:19:21.596Z,96957.84
2023-02-04T06:21:49.596Z,96959.45
2023-02-04T06:24:18.284Z,96958.14
2023-02-04T06:26:46.345Z,96952.56
2023-02-04T06:29:14.261Z,96956.08
2023-02-04T06:31:42.452Z,96954.17
2023-02-04T06:34:10.727Z,96954.98
2023-02-04T06:36:40.778Z,96953.31
2023-02-04T06:39:08.680Z,96952.94
2023-02-04T06:41:36.679Z,96952.05
2023-02-04T06:44:04.782Z,96953.83
2023-02-04T06:46:33.394Z,96962.48
2023-02-04T06:49:01.367Z,96970.60
2023-02-04T06:51:30.130Z,96970.08
2023-02-04T06:53:59.487Z,96972.38
2023-02-04T06:56:29.411Z,96970.27
2023-02-04T06:58:57.423Z,96970.70
2023-02-04T07:01:25.928Z,96968.89
2023-02-04T07:03:53.921Z,96967.38
2023-02-04T07:06:22.014Z,96962.02
2023-02-04T07:08:51.402Z,96953.08
2023-02-04T07:11:19.778Z,96948.25
2023-02-04T07:13:47.794Z,96952.86
2023-02-04T07:16:16.025Z,96953.51
2023-02-04T07:18:44.243Z,96958.58
2023-02-04T07:21:12.153Z,96960.27
2023-02-04T07:23:40.083Z,96965.59
2023-02-04T07:26:08.158Z,96967.00
2023-02-04T07:28:37.044Z,96967.20
2023-02-04T07:31:05.283Z,96964.71
2023-02-04T07:33:37.178Z,96961.40
2023-02-04T07:36:05.359Z,96958.34
2023-02-04T07:38:34.656Z,96956.19
2023-02-04T07:41:05.329Z,96956.27
2023-02-04T07:43:34.157Z,96950.17
2023-02-04T07:46:03.314Z,96952.64
2023-02-04T07:48:33.656Z,96954.81
2023-02-04T07:51:01.911Z,96959.02
2023-02-04T07:53:31.286Z,96959.75
2023-02-04T07:55:59.413Z,96967.39
2023-02-04T07:58:27.579Z,96971.63
2023-02-04T08:00:55.581Z,96972.40
2023-02-04T08:03:23.610Z,96974.39
2023-02-04T08:05:53.096Z,96971.14
2023-02-04T08:08:21.063Z,96970.46
2023-02-04T08:10:49.986Z,96969.99
2023-02-04T08:13:18.159Z,96974.38
2023-02-04T08:15:46.238Z,96976.44
2023-02-04T08:18:14.212Z,96981.23
2023-02-04T08:20:42.221Z,96981.70
2023-02-04T08:23:11.703Z,96983.91
2023-02-04T08:25:41.781Z,96983.50
2023-02-04T08:28:09.791Z,96979.23
2023-02-04T08:30:38.124Z,96982.31
2023-02-04T08:33:06.344Z,96979.38
2023-02-04T08:35:34.352Z,96979.67
2023-02-04T08:38:04.600Z,96981.80
2023-02-04T08:40:34.061Z,96984.98
2023-02-04T08:43:03.368Z,96988.59
2023-02-04T08:45:31.588Z,96984.48
2023-02-04T08:48:01.295Z,96990.14
2023-02-04T08:50:31.753Z,96990.70
2023-02-04T08:52:59.798Z,96993.85
2023-02-04T08:55:27.942Z,96996.14
2023-02-04T08:57:56.108Z,96997.63
2023-02-04T09:00:24.319Z,96999.84
2023-02-04T09:02:52.490Z,96999.86
2023-02-04T09:05:23.251Z,96998.89
2023-02-04T09:07:53.018Z,97002.88
2023-02-04T09:10:22.595Z,97005.59
2023-02-04T09:12:56.129Z,97005.15
2023-02-04T09:15:24.930Z,97009.34
2023-02-04T09:18:01.484Z,97010.73
2023-02-04T09:20:31.569Z,97015.74
2023-02-04T09:23:00.399Z,97013.54
2023-02-04T09:25:28.977Z,97010.36
2023-02-04T09:27:57.002Z,97012.89
2023-02-04T09:30:25.190Z,97014.23
2023-02-04T09:32:53.129Z,97014.40
2023-02-04T09:35:23.243Z,97015.54
2023-02-04T09:37:53.984Z,97016.54
2023-02-04T09:40:22.210Z,97020.53
2023-02-04T09:42:52.326Z,97022.63
2023-02-04T09:45:33.075Z,97025.51
2023-02-04T09:48:04.338Z,97026.55
2023-02-04T09:50:33.867Z,97028.94
2023-02-04T09:53:05.669Z,97026.64
2023-02-04T09:55:37.492Z,97029.89
2023-02-04T09:58:15.283Z,97026.17
2023-02-04T10:00:45.737Z,97031.48
2023-02-04T10:03:22.151Z,97028.67
2023-02-04T10:05:51.747Z,97023.89
2023-02-04T10:08:29.878Z,97022.91
2023-02-04T10:10:58.247Z,97026.54
2023-02-04T10:13:50.482Z,97023.01
2023-02-04T10:16:23.867Z,97018.92
2023-02-04T10:18:52.590Z,97024.50
2023-02-04T10:21:28.626Z,97024.00
2023-02-04T10:23:59.104Z,97022.38
2023-02-04T10:26:29.769Z,97021.09
2023-02-04T10:29:04.124Z,97021.37
2023-02-04T10:31:41.410Z,97023.13
2023-02-04T10:34:16.831Z,97024.73
2023-02-04T10:36:57.945Z,97027.34
2023-02-04T10:39:30.427Z,97022.34
2023-02-04T10:42:00.937Z,97023.95
2023-02-04T10:44:40.777Z,97027.58
2023-02-04T10:47:21.437Z,97028.83
2023-02-04T10:50:15.076Z,97027.67
2023-02-04T10:52:51.871Z,97024.98
2023-02-04T10:55:23.807Z,97023.31
2023-02-04T10:57:53.370Z,97028.61
2023-02-04T11:00:25.309Z,97028.77
2023-02-04T11:03:03.294Z,97034.72
2023-02-04T11:05:33.556Z,97031.88
2023-02-04T11:08:14.186Z,97031.81
2023-02-04T11:10:43.797Z,97033.26
2023-02-04T11:13:26.143Z,97034.11
2023-02-04T11:16:17.480Z,97036.59
2023-02-04T11:19:02.079Z,97040.27
2023-02-04T11:21:36.534Z,97040.63
2023-02-04T11:24:14.440Z,97043.95
2023-02-04T11:26:52.595Z,97043.89
2023-02-04T11:29:35.029Z,97042.53
2023-02-04T11:32:35.304Z,97047.44
2023-02-04T11:35:26.557Z,97046.30
2023-02-04T11:37:56.080Z,97048.61
2023-02-04T11:40:32.034Z,97053.63
2023-02-04T11:43:17.131Z,97053.40
2023-02-04T11:45:47.714Z,97059.34
2023-02-04T11:48:21.610Z,97059.92
2023-02-04T11:50:58.390Z,97063.04
2023-02-04T11:53:31.575Z,97060.19
2023-02-04T11:56:01.643Z,97058.54
2023-02-04T11:58:31.665Z,97065.76
2023-02-04T12:01:00.124Z,97070.81
2023-02-04T12:03:36.027Z,97075.61
2023-02-04T12:06:04.620Z,97076.91
2023-02-04T12:08:36.538Z,97081.71
2023-02-04T12:11:12.399Z,97085.97
2023-02-04T12:13:52.195Z,97089.46
2023-02-04T12:16:21.206Z,97089.19
2023-02-04T12:18:49.717Z,97095.33
2023-02-04T12:21:20.490Z,97093.91
2023-02-04T12:23:48.570Z,97097.86
2023-02-04T12:26:16.702Z,97099.90
2023-02-04T12:28:45.848Z,97104.14
2023-02-04T12:31:14.089Z,97106.86
2023-02-04T12:33:44.791Z,97113.09
2023-02-04T12:36:12.874Z,97118.42
2023-02-04T12:38:42.490Z,97119.62
2023-02-04T12:41:12.151Z,97123.44
2023-02-04T12:43:40.364Z,97126.40
2023-02-04T12:46:09.580Z,97129.02
2023-02-04T12:48:41.113Z,97135.48
2023-02-04T12:51:09.410Z,97142.97
2023-02-04T12:53:37.501Z,97151.27
2023-02-04T12:56:06.724Z,97158.09
2023-02-04T12:58:35.210Z,97162.77
2023-02-04T13:01:06.107Z,97167.73
2023-02-04T13:03:34.436Z,97173.14
2023-02-04T13:06:02.454Z,97179.56
2023-02-04T13:08:32.075Z,97178.23
2023-02-04T13:11:00.214Z,97192.34
2023-02-04T13:13:29.015Z,97193.59
2023-02-04T13:15:59.853Z,97202.44
2023-02-04T13:18:29.223Z,97215.08
2023-02-04T13:20:59.618Z,97212.54
2023-02-04T13:23:28.734Z,97222.78
2023-02-04T13:25:57.826Z,97224.58
2023-02-04T13:28:25.966Z,97236.73
2023-02-04T13:30:55.214Z,97240.69
2023-02-04T13:33:25.266Z,97243.09
2023-02-04T13:35:53.309Z,97249.71
2023-02-04T13:38:23.662Z,97253.98
2023-02-04T13:40:51.922Z,97259.42
2023-02-04T13:43:20.444Z,97262.43
2023-02-04T13:45:49.319Z,97268.48
2023-02-04T13:48:17.405Z,97279.86
2023-02-04T13:50:45.530Z,97280.95
2023-02-04T13:53:13.832Z,97286.05
2023-02-04T13:55:41.836Z,97284.83
2023-02-04T13:58:10.261Z,97288.52
2023-02-04T14:00:38.427Z,97291.27
2023-02-04T14:03:06.435Z,97304.21
2023-02-04T14:05:36.390Z,97305.12
2023-02-04T14:08:04.490Z,97309.60
2023-02-04T14:10:33.085Z,97312.34
2023-02-04T14:13:01.782Z,97317.78
2023-02-04T14:15:29.956Z,97319.13
2023-02-04T14:17:58.401Z,97325.52
2023-02-04T14:20:27.049Z,97328.96
2023-02-04T14:22:55.184Z,97331.58
2023-02-04T14:25:23.319Z,97335.32
2023-02-04T14:27:52.240Z,97335.23
2023-02-04T14:30:24.014Z,97338.98
2023-02-04T14:32:54.790Z,97338.55
2023-02-04T14:35:24.541Z,97344.02
2023-02-04T14:37:53.232Z,97349.88
2023-02-04T14:40:22.592Z,97348.92
2023-02-04T14:42:50.658Z,97355.90
2023-02-04T14:45:18.869Z,97355.58
2023-02-04T14:47:47.014Z,97358.92
2023-02-04T14:50:16.749Z,97364.45
2023-02-04T14:52:45.294Z,97363.21
2023-02-04T14:55:14.486Z,97369.74
2023-02-04T14:57:42.509Z,97368.27
2023-02-04T15:00:11.675Z,97376.05
2023-02-04T15:02:40.465Z,97384.36
2023-02-04T15:05:09.610Z,97391.59
2023-02-04T15:07:38.039Z,97391.86
2023-02-04T15:10:09.616Z,97406.16
2023-02-04T15:12:38.166Z,97412.63
2023-02-04T15:15:06.491Z,97422.52
2023-02-04T15:17:34.575Z,97421.98
2023-02-04T15:20:04.122Z,97431.38
2023-02-04T15:22:33.547Z,97439.11
2023-02-04T15:25:01.599Z,97449.98
2023-02-04T15:27:29.783Z,97458.89
2023-02-04T15:29:59.008Z,97467.00
2023-02-04T15:32:27.377Z,97471.54
2023-02-04T15:34:55.412Z,97477.83
2023-02-04T15:37:23.403Z,97488.66
2023-02-04T15:39:51.650Z,97501.00
2023-02-04T15:42:20.765Z,97512.38
2023-02-04T15:44:49.081Z,97521.37
2023-02-04T15:47:19.836Z,97528.84
2023-02-04T15:49:50.216Z,97541.30
2023-02-04T15:52:24.584Z,97544.93
2023-02-04T15:54:55.038Z,97560.33
2023-02-04T15:57:25.180Z,97567.09
2023-02-04T15:59:55.746Z,97576.24
2023-02-04T16:02:23.711Z,97587.56
2023-02-04T16:04:52.706Z,97596.23
2023-02-04T16:07:20.748Z,97605.38
2023-02-04T16:09:48.776Z,97609.88
2023-02-04T16:12:17.046Z,97622.25
2023-02-04T16:14:45.110Z,97638.96
2023-02-04T16:17:13.199Z,97641.93
2023-02-04T16:19:41.500Z,97647.83
2023-02-04T16:22:09.616Z,97654.27
2023-02-04T16:24:38.819Z,97669.19
2023-02-04T16:27:07.268Z,97670.79
2023-02-04T16:29:35.241Z,97687.08
2023-02-04T16:32:03.517Z,97690.46
2023-02-04T16:34:31.577Z,97698.45
2023-02-04T16:36:59.552Z,97706.13
2023-02-04T16:39:27.716Z,97707.31
2023-02-04T16:41:55.735Z,97712.33
2023-02-04T16:44:24.901Z,97717.58
2023-02-04T16:46:53.620Z,97722.96
2023-02-04T16:49:21.731Z,97734.46
2023-02-04T16:51:50.166Z,97739.31
2023-02-04T16:54:18.081Z,97748.46
2023-02-04T16:56:46.421Z,97751.34
2023-02-04T16:59:14.859Z,97758.75
2023-02-04T17:01:42.938Z,97769.11
2023-02-04T17:04:13.142Z,97776.73
2023-02-04T17:06:41.570Z,97782.52
2023-02-04T17:09:09.648Z,97785.63
2023-02-04T17:11:37.595Z,97782.02
2023-02-04T17:14:10.806Z,97788.98
2023-02-04T17:16:38.930Z,97799.94
2023-02-04T17:19:07.304Z,97801.59
2023-02-04T17:21:35.869Z,97814.30
2023-02-04T17:24:04.540Z,97817.13
2023-02-04T17:26:38.391Z,97819.92
2023-02-04T17:29:11.774Z,97826.67
2023-02-04T17:31:43.472Z,97832.91
2023-02-04T17:34:11.634Z,97832.11
2023-02-04T17:36:39.918Z,97841.73
2023-02-04T17:39:08.117Z,97842.83
2023-02-04T17:41:36.589Z,97847.91
2023-02-04T17:44:05.002Z,97854.20
2023-02-04T17:46:34.301Z,97861.85
2023-02-04T17:49:02.507Z,97869.42
2023-02-04T17:51:31.727Z,97881.29
2023-02-04T17:53:59.820Z,97882.39
2023-02-04T17:56:27.874Z,97886.23
2023-02-04T17:58:56.281Z,97887.67
2023-02-04T18:01:25.359Z,97885.97
2023-02-04T18:03:53.682Z,97893.48
2023-02-04T18:06:25.364Z,97897.95
2023-02-04T18:08:56.592Z,97905.15
2023-02-04T18:11:27.735Z,97910.14
2023-02-04T18:14:12.752Z,97917.98
2023-02-04T18:16:41.770Z,97924.97
2023-02-04T18:19:30.156Z,97928.31
2023-02-04T18:21:59.004Z,97938.51
2023-02-04T18:24:34.145Z,97932.10
2023-02-04T18:27:09.192Z,97932.27
2023-02-04T18:29:40.888Z,97947.31
2023-02-04T18:32:08.931Z,97941.80
2023-02-04T18:34:40.653Z,97948.58
2023-02-04T18:37:29.426Z,97950.04
2023-02-04T18:40:09.651Z,97962.23
2023-02-04T18:42:41.015Z,97971.05
2023-02-04T18:45:29.063Z,97979.16
2023-02-04T18:48:21.482Z,97989.51
2023-02-04T18:50:52.402Z,97989.59
2023-02-04T18:53:25.562Z,97994.89
2023-02-04T18:55:58.161Z,97999.71
2023-02-04T18:58:44.836Z,98000.42
2023-02-04T19:01:17.124Z,98005.02
2023-02-04T19:03:53.483Z,98017.59
2023-02-04T19:06:32.050Z,98019.05
2023-02-04T19:09:12.205Z,98030.45
2023-02-04T19:11:43.973Z,98034.70
2023-02-04T19:14:18.252Z,98039.95
2023-02-04T19:16:50.821Z,98046.10
2023-02-04T19:19:58.933Z,98050.30
2023-02-04T19:22:36.060Z,98060.78
2023-02-04T19:25:25.823Z,98068.77
2023-02-04T19:27:59.983Z,98075.60
2023-02-04T19:30:28.010Z,98078.69
2023-02-04T19:32:58.364Z,98079.01
2023-02-04T19:35:28.626Z,98087.08
2023-02-04T19:38:00.606Z,98091.33
2023-02-04T19:40:37.991Z,98098.87
2023-02-04T19:43:34.297Z,98095.71
2023-02-04T19:46:16.857Z,98099.30
2023-02-04T19:48:46.297Z,98098.32
2023-02-04T19:51:26.841Z,98105.33
2023-02-04T19:54:10.639Z,98105.24
2023-02-04T19:56:41.599Z,98113.77
2023-02-04T19:59:18.807Z,98119.23
2023-02-04T20:01:50.434Z,98124.35
2023-02-04T20:04:20.716Z,98126.96
2023-02-04T20:06:48.718Z,98130.97
2023-02-04T20:09:20.041Z,98131.31
2023-02-04T20:11:58.765Z,98131.77
2023-02-04T20:14:38.817Z,98132.23
2023-02-04T20:17:45.852Z,98129.23
2023-02-04T20:20:20.851Z,98131.86
2023-02-04T20:22:49.146Z,98137.33
2023-02-04T20:25:20.039Z,98142.91
2023-02-04T20:27:55.543Z,98145.48
2023-02-04T20:30:28.653Z,98157.73
2023-02-04T20:33:23.633Z,98159.54
2023-02-04T20:36:26.448Z,98163.68
2023-02-04T20:39:14.268Z,98162.78
2023-02-04T20:41:42.792Z,98174.98
2023-02-04T20:44:38.841Z,98177.58
2023-02-04T20:47:19.054Z,98171.19
2023-02-04T20:49:54.144Z,98174.52
2023-02-04T20:52:40.664Z,98178.45
2023-02-04T20:55:28.482Z,98183.79
2023-02-04T20:58:21.120Z,98189.30
2023-02-04T21:00:54.398Z,98189.41
2023-02-04T21:03:26.160Z,98193.59
2023-02-04T21:05:56.379Z,98198.16
2023-02-04T21:08:28.024Z,98199.89
2023-02-04T21:10:57.299Z,98197.61
2023-02-04T21:13:26.027Z,98208.41
2023-02-04T21:15:55.310Z,98200.82
2023-02-04T21:18:26.001Z,98201.88
2023-02-04T21:20:53.997Z,98201.58
2023-02-04T21:23:22.199Z,98208.70
2023-02-04T21:25:51.233Z,98204.27
2023-02-04T21:28:19.418Z,98209.79
2023-02-04T21:30:47.639Z,98210.27
2023-02-04T21:33:17.221Z,98212.90
2023-02-04T21:35:45.449Z,98215.80
2023-02-04T21:38:13.420Z,98222.77
2023-02-04T21:40:41.584Z,98222.35
2023-02-04T21:43:09.611Z,98223.64
2023-02-04T21:45:39.814Z,98231.75
2023-02-04T21:48:08.236Z,98232.52
2023-02-04T21:50:38.624Z,98231.37
2023-02-04T21:53:08.682Z,98235.73
2023-02-04T21:55:37.877Z,98244.01
2023-02-04T21:58:07.218Z,98251.08
2023-02-04T22:00:35.684Z,98253.52
2023-02-04T22:03:04.504Z,98257.98
2023-02-04T22:05:33.063Z,98256.63
2023-02-04T22:08:01.316Z,98266.98
2023-02-04T22:10:30.175Z,98269.00
2023-02-04T22:12:58.205Z,98269.55
2023-02-04T22:15:28.787Z,98273.83
2023-02-04T22:17:59.089Z,98273.73
2023-02-04T22:20:27.070Z,98273.83
2023-02-04T22:22:55.115Z,98276.50
2023-02-04T22:25:23.282Z,98280.19
2023-02-04T22:27:51.406Z,98277.38
2023-02-04T22:30:19.935Z,98287.52
2023-02-04T22:32:47.985Z,98296.86
2023-02-04T22:35:16.924Z,98298.72
2023-02-04T22:37:44.902Z,98302.91
2023-02-04T22:40:13.564Z,98304.38
2023-02-04T22:42:41.538Z,98304.84
2023-02-04T22:45:10.453Z,98298.51
2023-02-04T22:47:38.983Z,98299.82
2023-02-04T22:50:07.664Z,98293.75
2023-02-04T22:52:35.747Z,98290.64
2023-02-04T22:55:04.448Z,98294.09
2023-02-04T22:57:32.479Z,98293.84
2023-02-04T23:00:00.520Z,98293.27
2023-02-04T23:02:28.662Z,98302.45
2023-02-04T23:04:57.210Z,98302.45
2023-02-04T23:07:25.393Z,98304.45
2023-02-04T23:09:53.367Z,98304.02
2023-02-04T23:12:21.374Z,98305.17
2023-02-04T23:14:50.230Z,98303.63
2023-02-04T23:17:18.597Z,98303.95
2023-02-04T23:19:46.626Z,98299.48
2023-02-04T23:22:15.576Z,98300.23
2023-02-04T23:24:43.895Z,98295.11
2023-02-04T23:27:12.171Z,98300.23
2023-02-04T23:29:40.310Z,98305.91
2023-02-04T23:32:09.855Z,98304.33
2023-02-04T23:34:37.864Z,98308.45
2023-02-04T23:37:06.241Z,98305.27
2023-02-04T23:39:34.299Z,98309.80
2023-02-04T23:42:04.081Z,98301.77
2023-02-04T23:44:32.092Z,98305.15
2023-02-04T23:47:00.087Z,98302.60
2023-02-04T23:49:28.816Z,98307.71
2023-02-04T23:51:57.065Z,98313.60
2023-02-04T23:54:25.045Z,98321.92
2023-02-04T23:56:53.754Z,98324.21
2023-02-04T23:59:22.788Z,98321.79
